sensor_id;sensor_type;location;lat;lon;timestamp;P1;durP1;ratioP1;P2;durP2;ratioP2
65759;SDS011;52496;51.082;5.066;2023-04-24T00:00:24;20.80;;;9.13;;
65759;SDS011;52496;51.082;5.066;2023-04-24T00:02:55;17.35;;;10.20;;
65759;SDS011;52496;51.082;5.066;2023-04-24T00:05:26;13.88;;;8.52;;
65759;SDS011;52496;51.082;5.066;2023-04-24T00:07:57;16.95;;;9.38;;
65759;SDS011;52496;51.082;5.066;2023-04-24T00:10:27;20.92;;;10.50;;
65759;SDS011;52496;51.082;5.066;2023-04-24T00:12:58;14.52;;;8.57;;
65759;SDS011;52496;51.082;5.066;2023-04-24T00:15:29;16.15;;;9.75;;
65759;SDS011;52496;51.082;5.066;2023-04-24T00:17:59;18.33;;;10.65;;
65759;SDS011;52496;51.082;5.066;2023-04-24T00:20:31;20.33;;;10.90;;
65759;SDS011;52496;51.082;5.066;2023-04-24T00:23:05;16.17;;;9.50;;
65759;SDS011;52496;51.082;5.066;2023-04-24T00:25:36;18.92;;;10.13;;
65759;SDS011;52496;51.082;5.066;2023-04-24T00:28:06;21.90;;;9.88;;
65759;SDS011;52496;51.082;5.066;2023-04-24T00:30:37;17.77;;;9.73;;
65759;SDS011;52496;51.082;5.066;2023-04-24T00:33:07;18.50;;;10.57;;
65759;SDS011;52496;51.082;5.066;2023-04-24T00:35:38;22.63;;;11.23;;
65759;SDS011;52496;51.082;5.066;2023-04-24T00:38:08;23.20;;;11.23;;
65759;SDS011;52496;51.082;5.066;2023-04-24T00:40:39;19.45;;;11.90;;
65759;SDS011;52496;51.082;5.066;2023-04-24T00:43:09;18.83;;;10.02;;
65759;SDS011;52496;51.082;5.066;2023-04-24T00:45:40;22.38;;;11.73;;
65759;SDS011;52496;51.082;5.066;2023-04-24T00:48:10;22.48;;;11.23;;
65759;SDS011;52496;51.082;5.066;2023-04-24T00:50:41;20.63;;;11.75;;
65759;SDS011;52496;51.082;5.066;2023-04-24T00:53:12;24.40;;;11.98;;
65759;SDS011;52496;51.082;5.066;2023-04-24T00:55:42;22.65;;;12.20;;
65759;SDS011;52496;51.082;5.066;2023-04-24T00:58:13;20.45;;;11.80;;
65759;SDS011;52496;51.082;5.066;2023-04-24T01:00:43;21.65;;;11.30;;
65759;SDS011;52496;51.082;5.066;2023-04-24T01:03:15;19.80;;;10.63;;
65759;SDS011;52496;51.082;5.066;2023-04-24T01:05:45;24.13;;;12.05;;
65759;SDS011;52496;51.082;5.066;2023-04-24T01:08:17;22.55;;;11.65;;
65759;SDS011;52496;51.082;5.066;2023-04-24T01:10:47;21.50;;;11.60;;
65759;SDS011;52496;51.082;5.066;2023-04-24T01:13:19;21.35;;;11.52;;
65759;SDS011;52496;51.082;5.066;2023-04-24T01:15:50;21.67;;;11.77;;
65759;SDS011;52496;51.082;5.066;2023-04-24T01:18:21;23.50;;;11.95;;
65759;SDS011;52496;51.082;5.066;2023-04-24T01:20:53;23.35;;;12.35;;
65759;SDS011;52496;51.082;5.066;2023-04-24T01:23:26;26.35;;;12.43;;
65759;SDS011;52496;51.082;5.066;2023-04-24T01:25:57;28.13;;;12.20;;
65759;SDS011;52496;51.082;5.066;2023-04-24T01:28:27;22.95;;;11.80;;
65759;SDS011;52496;51.082;5.066;2023-04-24T01:30:58;20.55;;;10.60;;
65759;SDS011;52496;51.082;5.066;2023-04-24T01:33:29;22.52;;;11.38;;
65759;SDS011;52496;51.082;5.066;2023-04-24T01:36:00;26.83;;;13.27;;
65759;SDS011;52496;51.082;5.066;2023-04-24T01:38:30;20.40;;;11.63;;
65759;SDS011;52496;51.082;5.066;2023-04-24T01:41:01;21.02;;;10.80;;
65759;SDS011;52496;51.082;5.066;2023-04-24T01:43:32;22.85;;;11.43;;
65759;SDS011;52496;51.082;5.066;2023-04-24T01:46:03;18.13;;;11.80;;
65759;SDS011;52496;51.082;5.066;2023-04-24T01:48:33;30.85;;;12.32;;
65759;SDS011;52496;51.082;5.066;2023-04-24T01:51:04;17.00;;;10.80;;
65759;SDS011;52496;51.082;5.066;2023-04-24T01:53:34;23.90;;;11.27;;
65759;SDS011;52496;51.082;5.066;2023-04-24T01:56:05;18.55;;;11.43;;
65759;SDS011;52496;51.082;5.066;2023-04-24T01:58:36;26.52;;;12.55;;
65759;SDS011;52496;51.082;5.066;2023-04-24T02:01:07;21.42;;;12.13;;
65759;SDS011;52496;51.082;5.066;2023-04-24T02:03:37;22.90;;;11.25;;
65759;SDS011;52496;51.082;5.066;2023-04-24T02:06:08;20.23;;;10.85;;
65759;SDS011;52496;51.082;5.066;2023-04-24T02:08:38;20.33;;;10.90;;
65759;SDS011;52496;51.082;5.066;2023-04-24T02:11:09;19.20;;;10.85;;
65759;SDS011;52496;51.082;5.066;2023-04-24T02:13:40;20.45;;;10.60;;
65759;SDS011;52496;51.082;5.066;2023-04-24T02:16:10;20.05;;;11.52;;
65759;SDS011;52496;51.082;5.066;2023-04-24T02:18:41;17.30;;;10.38;;
65759;SDS011;52496;51.082;5.066;2023-04-24T02:21:11;18.13;;;10.05;;
65759;SDS011;52496;51.082;5.066;2023-04-24T02:23:41;18.88;;;11.07;;
65759;SDS011;52496;51.082;5.066;2023-04-24T02:26:12;25.63;;;11.40;;
65759;SDS011;52496;51.082;5.066;2023-04-24T02:28:42;20.23;;;10.23;;
65759;SDS011;52496;51.082;5.066;2023-04-24T02:31:13;20.40;;;10.35;;
65759;SDS011;52496;51.082;5.066;2023-04-24T02:33:43;19.08;;;10.43;;
65759;SDS011;52496;51.082;5.066;2023-04-24T02:36:14;18.35;;;10.68;;
65759;SDS011;52496;51.082;5.066;2023-04-24T02:38:44;19.42;;;11.82;;
65759;SDS011;52496;51.082;5.066;2023-04-24T02:41:15;19.55;;;11.15;;
65759;SDS011;52496;51.082;5.066;2023-04-24T02:43:45;24.55;;;10.18;;
65759;SDS011;52496;51.082;5.066;2023-04-24T02:46:16;20.95;;;10.30;;
65759;SDS011;52496;51.082;5.066;2023-04-24T02:48:46;15.75;;;11.45;;
65759;SDS011;52496;51.082;5.066;2023-04-24T02:51:17;20.33;;;10.52;;
65759;SDS011;52496;51.082;5.066;2023-04-24T02:53:47;20.70;;;9.35;;
65759;SDS011;52496;51.082;5.066;2023-04-24T02:56:18;17.38;;;9.80;;
65759;SDS011;52496;51.082;5.066;2023-04-24T02:58:48;15.77;;;8.73;;
65759;SDS011;52496;51.082;5.066;2023-04-24T03:01:19;17.52;;;9.13;;
65759;SDS011;52496;51.082;5.066;2023-04-24T03:03:49;17.75;;;9.73;;
65759;SDS011;52496;51.082;5.066;2023-04-24T03:06:19;14.50;;;7.97;;
65759;SDS011;52496;51.082;5.066;2023-04-24T03:08:51;17.92;;;9.80;;
65759;SDS011;52496;51.082;5.066;2023-04-24T03:11:21;17.85;;;10.32;;
65759;SDS011;52496;51.082;5.066;2023-04-24T03:13:52;19.05;;;10.02;;
65759;SDS011;52496;51.082;5.066;2023-04-24T03:16:22;20.23;;;10.38;;
65759;SDS011;52496;51.082;5.066;2023-04-24T03:18:53;18.23;;;9.35;;
65759;SDS011;52496;51.082;5.066;2023-04-24T03:21:23;20.45;;;9.57;;
65759;SDS011;52496;51.082;5.066;2023-04-24T03:23:54;16.77;;;10.18;;
65759;SDS011;52496;51.082;5.066;2023-04-24T03:26:25;20.40;;;10.45;;
65759;SDS011;52496;51.082;5.066;2023-04-24T03:28:55;17.40;;;10.25;;
65759;SDS011;52496;51.082;5.066;2023-04-24T03:31:26;17.38;;;9.70;;
65759;SDS011;52496;51.082;5.066;2023-04-24T03:33:56;18.95;;;10.40;;
65759;SDS011;52496;51.082;5.066;2023-04-24T03:36:27;18.52;;;10.63;;
65759;SDS011;52496;51.082;5.066;2023-04-24T03:38:57;18.52;;;10.68;;
65759;SDS011;52496;51.082;5.066;2023-04-24T03:41:28;16.27;;;9.82;;
65759;SDS011;52496;51.082;5.066;2023-04-24T03:43:58;20.10;;;12.38;;
65759;SDS011;52496;51.082;5.066;2023-04-24T03:46:29;15.30;;;10.15;;
65759;SDS011;52496;51.082;5.066;2023-04-24T03:48:59;20.30;;;10.70;;
65759;SDS011;52496;51.082;5.066;2023-04-24T03:51:30;17.05;;;9.82;;
65759;SDS011;52496;51.082;5.066;2023-04-24T03:54:01;17.67;;;10.73;;
65759;SDS011;52496;51.082;5.066;2023-04-24T03:56:32;18.52;;;10.40;;
65759;SDS011;52496;51.082;5.066;2023-04-24T03:59:02;20.88;;;11.05;;
65759;SDS011;52496;51.082;5.066;2023-04-24T04:01:32;22.05;;;11.05;;
65759;SDS011;52496;51.082;5.066;2023-04-24T04:04:06;20.92;;;11.40;;
65759;SDS011;52496;51.082;5.066;2023-04-24T04:06:37;19.55;;;11.93;;
65759;SDS011;52496;51.082;5.066;2023-04-24T04:09:08;19.95;;;10.73;;
65759;SDS011;52496;51.082;5.066;2023-04-24T04:11:38;21.80;;;11.35;;
65759;SDS011;52496;51.082;5.066;2023-04-24T04:14:09;21.70;;;10.77;;
65759;SDS011;52496;51.082;5.066;2023-04-24T04:16:40;18.08;;;10.55;;
65759;SDS011;52496;51.082;5.066;2023-04-24T04:19:10;16.10;;;9.57;;
65759;SDS011;52496;51.082;5.066;2023-04-24T04:21:41;18.50;;;9.85;;
65759;SDS011;52496;51.082;5.066;2023-04-24T04:24:11;20.60;;;10.38;;
65759;SDS011;52496;51.082;5.066;2023-04-24T04:26:42;16.60;;;9.88;;
65759;SDS011;52496;51.082;5.066;2023-04-24T04:29:17;14.45;;;8.70;;
65759;SDS011;52496;51.082;5.066;2023-04-24T04:31:48;15.60;;;8.68;;
65759;SDS011;52496;51.082;5.066;2023-04-24T04:34:18;14.43;;;8.88;;
65759;SDS011;52496;51.082;5.066;2023-04-24T04:36:49;14.82;;;8.60;;
65759;SDS011;52496;51.082;5.066;2023-04-24T04:39:20;16.75;;;8.75;;
65759;SDS011;52496;51.082;5.066;2023-04-24T04:41:51;11.45;;;7.18;;
65759;SDS011;52496;51.082;5.066;2023-04-24T04:44:21;12.55;;;7.32;;
65759;SDS011;52496;51.082;5.066;2023-04-24T04:46:52;12.68;;;6.90;;
65759;SDS011;52496;51.082;5.066;2023-04-24T04:49:23;16.60;;;7.35;;
65759;SDS011;52496;51.082;5.066;2023-04-24T04:51:55;14.55;;;7.68;;
65759;SDS011;52496;51.082;5.066;2023-04-24T04:54:25;11.23;;;7.05;;
65759;SDS011;52496;51.082;5.066;2023-04-24T04:56:55;11.70;;;6.43;;
65759;SDS011;52496;51.082;5.066;2023-04-24T04:59:27;9.68;;;6.20;;
65759;SDS011;52496;51.082;5.066;2023-04-24T05:01:57;11.23;;;6.35;;
65759;SDS011;52496;51.082;5.066;2023-04-24T05:04:28;11.90;;;6.05;;
65759;SDS011;52496;51.082;5.066;2023-04-24T05:06:58;10.02;;;6.28;;
65759;SDS011;52496;51.082;5.066;2023-04-24T05:09:29;13.20;;;6.53;;
65759;SDS011;52496;51.082;5.066;2023-04-24T05:12:00;9.68;;;5.63;;
65759;SDS011;52496;51.082;5.066;2023-04-24T05:14:30;11.25;;;5.93;;
65759;SDS011;52496;51.082;5.066;2023-04-24T05:17:00;11.38;;;5.95;;
65759;SDS011;52496;51.082;5.066;2023-04-24T05:19:31;9.15;;;5.80;;
65759;SDS011;52496;51.082;5.066;2023-04-24T05:22:05;9.68;;;5.28;;
65759;SDS011;52496;51.082;5.066;2023-04-24T05:24:36;9.38;;;5.10;;
65759;SDS011;52496;51.082;5.066;2023-04-24T05:27:07;8.95;;;5.03;;
65759;SDS011;52496;51.082;5.066;2023-04-24T05:29:38;10.43;;;5.68;;
65759;SDS011;52496;51.082;5.066;2023-04-24T05:32:08;9.55;;;5.43;;
65759;SDS011;52496;51.082;5.066;2023-04-24T05:34:39;12.57;;;5.90;;
65759;SDS011;52496;51.082;5.066;2023-04-24T05:37:09;9.70;;;6.05;;
65759;SDS011;52496;51.082;5.066;2023-04-24T05:39:40;11.95;;;6.38;;
65759;SDS011;52496;51.082;5.066;2023-04-24T05:42:11;15.85;;;8.38;;
65759;SDS011;52496;51.082;5.066;2023-04-24T05:44:42;16.25;;;8.77;;
65759;SDS011;52496;51.082;5.066;2023-04-24T05:47:21;16.10;;;9.18;;
65759;SDS011;52496;51.082;5.066;2023-04-24T05:49:52;15.60;;;8.73;;
65759;SDS011;52496;51.082;5.066;2023-04-24T05:52:23;17.20;;;10.27;;
65759;SDS011;52496;51.082;5.066;2023-04-24T05:54:54;14.55;;;8.43;;
65759;SDS011;52496;51.082;5.066;2023-04-24T05:57:24;20.45;;;10.80;;
65759;SDS011;52496;51.082;5.066;2023-04-24T05:59:55;19.48;;;9.07;;
65759;SDS011;52496;51.082;5.066;2023-04-24T06:02:26;20.13;;;10.50;;
65759;SDS011;52496;51.082;5.066;2023-04-24T06:04:57;23.65;;;9.95;;
65759;SDS011;52496;51.082;5.066;2023-04-24T06:07:29;21.15;;;9.95;;
65759;SDS011;52496;51.082;5.066;2023-04-24T06:09:59;19.50;;;9.90;;
65759;SDS011;52496;51.082;5.066;2023-04-24T06:12:30;19.75;;;9.90;;
65759;SDS011;52496;51.082;5.066;2023-04-24T06:15:01;18.13;;;9.73;;
65759;SDS011;52496;51.082;5.066;2023-04-24T06:17:31;16.48;;;9.30;;
65759;SDS011;52496;51.082;5.066;2023-04-24T06:20:02;14.50;;;8.65;;
65759;SDS011;52496;51.082;5.066;2023-04-24T06:22:35;16.17;;;8.30;;
65759;SDS011;52496;51.082;5.066;2023-04-24T06:25:06;16.05;;;7.55;;
65759;SDS011;52496;51.082;5.066;2023-04-24T06:27:37;15.80;;;9.23;;
65759;SDS011;52496;51.082;5.066;2023-04-24T06:30:08;17.23;;;8.43;;
65759;SDS011;52496;51.082;5.066;2023-04-24T06:32:39;17.08;;;7.97;;
65759;SDS011;52496;51.082;5.066;2023-04-24T06:35:10;15.02;;;8.75;;
65759;SDS011;52496;51.082;5.066;2023-04-24T06:37:41;20.48;;;10.68;;
65759;SDS011;52496;51.082;5.066;2023-04-24T06:40:12;18.17;;;8.90;;
65759;SDS011;52496;51.082;5.066;2023-04-24T06:42:43;18.75;;;9.70;;
65759;SDS011;52496;51.082;5.066;2023-04-24T06:45:13;16.50;;;7.75;;
65759;SDS011;52496;51.082;5.066;2023-04-24T06:47:44;23.23;;;8.52;;
65759;SDS011;52496;51.082;5.066;2023-04-24T06:50:15;16.38;;;8.43;;
65759;SDS011;52496;51.082;5.066;2023-04-24T06:52:45;16.98;;;7.90;;
65759;SDS011;52496;51.082;5.066;2023-04-24T06:55:16;14.45;;;7.97;;
65759;SDS011;52496;51.082;5.066;2023-04-24T06:57:47;16.80;;;8.20;;
65759;SDS011;52496;51.082;5.066;2023-04-24T07:00:18;15.02;;;8.80;;
65759;SDS011;52496;51.082;5.066;2023-04-24T07:02:49;16.08;;;8.43;;
65759;SDS011;52496;51.082;5.066;2023-04-24T07:05:19;17.38;;;8.90;;
65759;SDS011;52496;51.082;5.066;2023-04-24T07:07:50;14.60;;;9.02;;
65759;SDS011;52496;51.082;5.066;2023-04-24T07:10:21;19.20;;;9.43;;
65759;SDS011;52496;51.082;5.066;2023-04-24T07:12:51;19.58;;;8.75;;
65759;SDS011;52496;51.082;5.066;2023-04-24T07:15:22;21.83;;;10.75;;
65759;SDS011;52496;51.082;5.066;2023-04-24T07:17:53;20.10;;;10.52;;
65759;SDS011;52496;51.082;5.066;2023-04-24T07:20:24;20.50;;;10.25;;
65759;SDS011;52496;51.082;5.066;2023-04-24T07:32:58;21.77;;;10.77;;
65759;SDS011;52496;51.082;5.066;2023-04-24T07:35:29;24.80;;;11.70;;
65759;SDS011;52496;51.082;5.066;2023-04-24T07:38:00;25.80;;;11.73;;
65759;SDS011;52496;51.082;5.066;2023-04-24T07:40:30;23.73;;;11.60;;
65759;SDS011;52496;51.082;5.066;2023-04-24T07:43:01;21.75;;;11.10;;
65759;SDS011;52496;51.082;5.066;2023-04-24T07:45:31;29.60;;;12.63;;
65759;SDS011;52496;51.082;5.066;2023-04-24T07:48:06;29.55;;;13.23;;
65759;SDS011;52496;51.082;5.066;2023-04-24T07:50:36;23.55;;;12.07;;
65759;SDS011;52496;51.082;5.066;2023-04-24T07:53:07;21.27;;;11.20;;
65759;SDS011;52496;51.082;5.066;2023-04-24T07:55:37;26.17;;;11.18;;
65759;SDS011;52496;51.082;5.066;2023-04-24T07:58:08;25.33;;;12.43;;
65759;SDS011;52496;51.082;5.066;2023-04-24T08:00:39;24.52;;;11.50;;
65759;SDS011;52496;51.082;5.066;2023-04-24T08:03:10;22.75;;;10.75;;
65759;SDS011;52496;51.082;5.066;2023-04-24T08:05:42;23.15;;;10.65;;
65759;SDS011;52496;51.082;5.066;2023-04-24T08:08:12;16.17;;;8.52;;
65759;SDS011;52496;51.082;5.066;2023-04-24T08:10:43;22.92;;;9.65;;
65759;SDS011;52496;51.082;5.066;2023-04-24T08:13:14;20.08;;;7.53;;
65759;SDS011;52496;51.082;5.066;2023-04-24T08:15:44;22.23;;;8.23;;
65759;SDS011;52496;51.082;5.066;2023-04-24T08:18:15;12.50;;;6.63;;
65759;SDS011;52496;51.082;5.066;2023-04-24T08:20:45;14.95;;;7.30;;
65759;SDS011;52496;51.082;5.066;2023-04-24T08:23:16;14.70;;;6.78;;
65759;SDS011;52496;51.082;5.066;2023-04-24T08:25:46;13.27;;;6.72;;
65759;SDS011;52496;51.082;5.066;2023-04-24T08:28:17;18.67;;;7.53;;
65759;SDS011;52496;51.082;5.066;2023-04-24T08:30:50;14.05;;;8.00;;
65759;SDS011;52496;51.082;5.066;2023-04-24T08:33:24;18.15;;;7.00;;
65759;SDS011;52496;51.082;5.066;2023-04-24T08:35:55;15.93;;;7.03;;
65759;SDS011;52496;51.082;5.066;2023-04-24T08:38:25;12.98;;;6.20;;
65759;SDS011;52496;51.082;5.066;2023-04-24T08:40:57;16.92;;;5.93;;
65759;SDS011;52496;51.082;5.066;2023-04-24T08:43:29;14.02;;;5.43;;
65759;SDS011;52496;51.082;5.066;2023-04-24T08:46:03;12.57;;;5.38;;
65759;SDS011;52496;51.082;5.066;2023-04-24T08:48:34;15.93;;;4.97;;
65759;SDS011;52496;51.082;5.066;2023-04-24T08:51:06;14.57;;;5.57;;
65759;SDS011;52496;51.082;5.066;2023-04-24T08:53:38;13.20;;;4.97;;
65759;SDS011;52496;51.082;5.066;2023-04-24T08:56:10;12.70;;;4.93;;
65759;SDS011;52496;51.082;5.066;2023-04-24T08:58:41;18.23;;;5.47;;
65759;SDS011;52496;51.082;5.066;2023-04-24T09:01:13;11.32;;;5.03;;
65759;SDS011;52496;51.082;5.066;2023-04-24T09:03:43;8.85;;;5.22;;
65759;SDS011;52496;51.082;5.066;2023-04-24T09:06:16;12.35;;;4.88;;
65759;SDS011;52496;51.082;5.066;2023-04-24T09:08:49;14.07;;;4.53;;
65759;SDS011;52496;51.082;5.066;2023-04-24T09:11:24;9.57;;;4.88;;
65759;SDS011;52496;51.082;5.066;2023-04-24T09:13:54;18.13;;;5.68;;
65759;SDS011;52496;51.082;5.066;2023-04-24T09:16:26;12.73;;;5.20;;
65759;SDS011;52496;51.082;5.066;2023-04-24T09:18:57;14.93;;;5.55;;
65759;SDS011;52496;51.082;5.066;2023-04-24T09:21:32;18.60;;;5.57;;
65759;SDS011;52496;51.082;5.066;2023-04-24T09:24:04;13.02;;;5.22;;
65759;SDS011;52496;51.082;5.066;2023-04-24T09:26:37;16.52;;;5.75;;
65759;SDS011;52496;51.082;5.066;2023-04-24T09:29:07;16.45;;;5.43;;
65759;SDS011;52496;51.082;5.066;2023-04-24T09:31:38;14.52;;;6.15;;
65759;SDS011;52496;51.082;5.066;2023-04-24T09:34:08;12.73;;;5.30;;
65759;SDS011;52496;51.082;5.066;2023-04-24T09:36:42;13.35;;;5.55;;
65759;SDS011;52496;51.082;5.066;2023-04-24T09:39:13;16.55;;;5.07;;
65759;SDS011;52496;51.082;5.066;2023-04-24T09:41:46;14.45;;;5.10;;
65759;SDS011;52496;51.082;5.066;2023-04-24T09:44:19;18.00;;;7.13;;
65759;SDS011;52496;51.082;5.066;2023-04-24T09:49:29;15.77;;;5.97;;
65759;SDS011;52496;51.082;5.066;2023-04-24T09:52:06;14.57;;;5.47;;
65759;SDS011;52496;51.082;5.066;2023-04-24T09:54:40;15.23;;;5.28;;
65759;SDS011;52496;51.082;5.066;2023-04-24T09:57:11;14.13;;;5.10;;
65759;SDS011;52496;51.082;5.066;2023-04-24T09:59:42;11.68;;;4.75;;
65759;SDS011;52496;51.082;5.066;2023-04-24T10:02:16;11.98;;;5.72;;
65759;SDS011;52496;51.082;5.066;2023-04-24T10:04:56;12.02;;;5.43;;
65759;SDS011;52496;51.082;5.066;2023-04-24T10:07:29;12.65;;;5.50;;
65759;SDS011;52496;51.082;5.066;2023-04-24T10:10:02;9.80;;;5.03;;
65759;SDS011;52496;51.082;5.066;2023-04-24T10:12:33;13.00;;;4.40;;
65759;SDS011;52496;51.082;5.066;2023-04-24T10:15:04;8.48;;;3.67;;
65759;SDS011;52496;51.082;5.066;2023-04-24T10:17:35;14.55;;;4.53;;
65759;SDS011;52496;51.082;5.066;2023-04-24T10:20:07;12.40;;;4.20;;
65759;SDS011;52496;51.082;5.066;2023-04-24T10:22:38;14.02;;;4.32;;
65759;SDS011;52496;51.082;5.066;2023-04-24T10:25:09;14.18;;;4.72;;
65759;SDS011;52496;51.082;5.066;2023-04-24T10:27:40;14.77;;;4.78;;
65759;SDS011;52496;51.082;5.066;2023-04-24T10:30:11;8.13;;;4.10;;
65759;SDS011;52496;51.082;5.066;2023-04-24T10:32:42;8.65;;;4.35;;
65759;SDS011;52496;51.082;5.066;2023-04-24T10:35:14;12.10;;;3.97;;
65759;SDS011;52496;51.082;5.066;2023-04-24T10:37:48;9.48;;;3.95;;
65759;SDS011;52496;51.082;5.066;2023-04-24T10:40:25;14.05;;;4.60;;
65759;SDS011;52496;51.082;5.066;2023-04-24T10:42:57;7.40;;;3.40;;
65759;SDS011;52496;51.082;5.066;2023-04-24T10:45:28;20.05;;;4.82;;
65759;SDS011;52496;51.082;5.066;2023-04-24T10:47:59;12.65;;;4.13;;
65759;SDS011;52496;51.082;5.066;2023-04-24T10:50:45;11.75;;;4.32;;
65759;SDS011;52496;51.082;5.066;2023-04-24T10:53:18;13.73;;;4.32;;
65759;SDS011;52496;51.082;5.066;2023-04-24T10:55:51;9.10;;;3.25;;
65759;SDS011;52496;51.082;5.066;2023-04-24T10:58:36;9.00;;;3.88;;
65759;SDS011;52496;51.082;5.066;2023-04-24T11:03:59;9.50;;;3.20;;
65759;SDS011;52496;51.082;5.066;2023-04-24T11:06:32;10.25;;;3.88;;
65759;SDS011;52496;51.082;5.066;2023-04-24T11:09:08;7.60;;;3.28;;
65759;SDS011;52496;51.082;5.066;2023-04-24T11:11:45;8.23;;;3.05;;
65759;SDS011;52496;51.082;5.066;2023-04-24T11:14:17;9.80;;;3.92;;
65759;SDS011;52496;51.082;5.066;2023-04-24T11:16:52;8.40;;;3.45;;
65759;SDS011;52496;51.082;5.066;2023-04-24T11:19:26;7.32;;;3.15;;
65759;SDS011;52496;51.082;5.066;2023-04-24T11:21:59;5.47;;;3.08;;
65759;SDS011;52496;51.082;5.066;2023-04-24T11:27:17;6.57;;;2.88;;
65759;SDS011;52496;51.082;5.066;2023-04-24T11:32:26;8.15;;;3.40;;
65759;SDS011;52496;51.082;5.066;2023-04-24T11:35:04;7.15;;;3.00;;
65759;SDS011;52496;51.082;5.066;2023-04-24T11:40:09;7.15;;;3.25;;
65759;SDS011;52496;51.082;5.066;2023-04-24T11:42:44;8.10;;;2.80;;
65759;SDS011;52496;51.082;5.066;2023-04-24T11:45:16;7.90;;;3.10;;
65759;SDS011;52496;51.082;5.066;2023-04-24T11:47:47;9.18;;;2.90;;
65759;SDS011;52496;51.082;5.066;2023-04-24T11:50:19;8.13;;;3.30;;
65759;SDS011;52496;51.082;5.066;2023-04-24T11:52:52;7.85;;;3.28;;
65759;SDS011;52496;51.082;5.066;2023-04-24T11:55:25;7.85;;;3.20;;
65759;SDS011;52496;51.082;5.066;2023-04-24T11:57:57;7.00;;;3.10;;
65759;SDS011;52496;51.082;5.066;2023-04-24T12:00:30;5.65;;;2.78;;
65759;SDS011;52496;51.082;5.066;2023-04-24T12:03:08;7.60;;;3.40;;
65759;SDS011;52496;51.082;5.066;2023-04-24T12:05:40;6.25;;;3.33;;
65759;SDS011;52496;51.082;5.066;2023-04-24T12:08:10;9.27;;;3.00;;
65759;SDS011;52496;51.082;5.066;2023-04-24T12:10:41;7.45;;;3.30;;
65759;SDS011;52496;51.082;5.066;2023-04-24T12:13:11;9.15;;;3.55;;
65759;SDS011;52496;51.082;5.066;2023-04-24T12:15:43;6.53;;;3.20;;
65759;SDS011;52496;51.082;5.066;2023-04-24T12:18:14;8.63;;;2.75;;
65759;SDS011;52496;51.082;5.066;2023-04-24T12:20:46;7.53;;;3.10;;
65759;SDS011;52496;51.082;5.066;2023-04-24T12:23:32;5.75;;;2.70;;
65759;SDS011;52496;51.082;5.066;2023-04-24T12:26:04;5.68;;;2.75;;
65759;SDS011;52496;51.082;5.066;2023-04-24T12:28:35;5.93;;;2.70;;
65759;SDS011;52496;51.082;5.066;2023-04-24T12:31:07;6.18;;;2.67;;
65759;SDS011;52496;51.082;5.066;2023-04-24T12:33:38;7.63;;;2.70;;
65759;SDS011;52496;51.082;5.066;2023-04-24T12:36:11;5.13;;;2.50;;
65759;SDS011;52496;51.082;5.066;2023-04-24T12:38:43;8.30;;;2.85;;
65759;SDS011;52496;51.082;5.066;2023-04-24T12:41:16;4.50;;;2.75;;
65759;SDS011;52496;51.082;5.066;2023-04-24T12:43:51;9.68;;;2.85;;
65759;SDS011;52496;51.082;5.066;2023-04-24T12:46:23;7.13;;;2.78;;
65759;SDS011;52496;51.082;5.066;2023-04-24T12:48:53;7.03;;;2.95;;
65759;SDS011;52496;51.082;5.066;2023-04-24T12:51:24;8.38;;;2.97;;
65759;SDS011;52496;51.082;5.066;2023-04-24T12:53:54;6.10;;;2.88;;
65759;SDS011;52496;51.082;5.066;2023-04-24T12:56:25;7.78;;;3.03;;
65759;SDS011;52496;51.082;5.066;2023-04-24T12:58:55;4.28;;;2.50;;
65759;SDS011;52496;51.082;5.066;2023-04-24T13:01:26;4.50;;;2.50;;
65759;SDS011;52496;51.082;5.066;2023-04-24T13:03:56;5.70;;;2.45;;
65759;SDS011;52496;51.082;5.066;2023-04-24T13:06:27;4.63;;;2.58;;
65759;SDS011;52496;51.082;5.066;2023-04-24T13:08:58;5.10;;;2.28;;
65759;SDS011;52496;51.082;5.066;2023-04-24T13:11:29;6.32;;;2.50;;
65759;SDS011;52496;51.082;5.066;2023-04-24T13:14:00;4.63;;;2.65;;
65759;SDS011;52496;51.082;5.066;2023-04-24T13:16:30;4.80;;;2.53;;
65759;SDS011;52496;51.082;5.066;2023-04-24T13:19:01;5.00;;;2.28;;
65759;SDS011;52496;51.082;5.066;2023-04-24T13:21:31;4.82;;;2.42;;
65759;SDS011;52496;51.082;5.066;2023-04-24T13:24:02;6.82;;;2.63;;
65759;SDS011;52496;51.082;5.066;2023-04-24T13:26:34;6.38;;;2.40;;
65759;SDS011;52496;51.082;5.066;2023-04-24T13:29:05;6.03;;;2.42;;
65759;SDS011;52496;51.082;5.066;2023-04-24T13:31:35;11.77;;;2.70;;
65759;SDS011;52496;51.082;5.066;2023-04-24T13:34:06;8.68;;;2.60;;
65759;SDS011;52496;51.082;5.066;2023-04-24T13:36:37;4.50;;;2.47;;
65759;SDS011;52496;51.082;5.066;2023-04-24T13:39:07;4.28;;;2.58;;
65759;SDS011;52496;51.082;5.066;2023-04-24T13:41:38;4.40;;;2.42;;
65759;SDS011;52496;51.082;5.066;2023-04-24T13:44:09;5.53;;;2.45;;
65759;SDS011;52496;51.082;5.066;2023-04-24T13:46:40;5.47;;;2.83;;
65759;SDS011;52496;51.082;5.066;2023-04-24T13:49:11;7.22;;;2.55;;
65759;SDS011;52496;51.082;5.066;2023-04-24T13:51:43;8.40;;;2.70;;
65759;SDS011;52496;51.082;5.066;2023-04-24T13:54:13;6.38;;;2.95;;
65759;SDS011;52496;51.082;5.066;2023-04-24T13:56:44;7.60;;;3.08;;
65759;SDS011;52496;51.082;5.066;2023-04-24T13:59:15;7.40;;;2.85;;
65759;SDS011;52496;51.082;5.066;2023-04-24T14:01:45;5.68;;;2.75;;
65759;SDS011;52496;51.082;5.066;2023-04-24T14:04:16;6.10;;;2.60;;
65759;SDS011;52496;51.082;5.066;2023-04-24T14:06:46;6.40;;;2.90;;
65759;SDS011;52496;51.082;5.066;2023-04-24T14:09:17;5.05;;;2.60;;
65759;SDS011;52496;51.082;5.066;2023-04-24T14:11:48;5.38;;;2.50;;
65759;SDS011;52496;51.082;5.066;2023-04-24T14:14:18;7.47;;;3.30;;
65759;SDS011;52496;51.082;5.066;2023-04-24T14:16:49;7.82;;;2.90;;
65759;SDS011;52496;51.082;5.066;2023-04-24T14:19:20;6.72;;;3.00;;
65759;SDS011;52496;51.082;5.066;2023-04-24T14:21:50;5.95;;;3.10;;
65759;SDS011;52496;51.082;5.066;2023-04-24T14:24:21;6.00;;;2.75;;
65759;SDS011;52496;51.082;5.066;2023-04-24T14:26:52;4.35;;;2.60;;
65759;SDS011;52496;51.082;5.066;2023-04-24T14:29:22;8.05;;;2.60;;
65759;SDS011;52496;51.082;5.066;2023-04-24T14:31:53;4.93;;;2.50;;
65759;SDS011;52496;51.082;5.066;2023-04-24T14:34:23;5.28;;;2.30;;
65759;SDS011;52496;51.082;5.066;2023-04-24T14:36:54;7.10;;;2.53;;
65759;SDS011;52496;51.082;5.066;2023-04-24T14:39:25;5.60;;;2.58;;
65759;SDS011;52496;51.082;5.066;2023-04-24T14:41:55;4.18;;;2.10;;
65759;SDS011;52496;51.082;5.066;2023-04-24T14:44:26;4.70;;;2.17;;
65759;SDS011;52496;51.082;5.066;2023-04-24T14:46:58;4.57;;;2.28;;
65759;SDS011;52496;51.082;5.066;2023-04-24T14:49:28;6.00;;;2.10;;
65759;SDS011;52496;51.082;5.066;2023-04-24T14:51:59;4.78;;;1.80;;
65759;SDS011;52496;51.082;5.066;2023-04-24T14:54:30;5.80;;;2.00;;
65759;SDS011;52496;51.082;5.066;2023-04-24T14:57:00;4.10;;;1.88;;
65759;SDS011;52496;51.082;5.066;2023-04-24T14:59:31;4.05;;;1.80;;
65759;SDS011;52496;51.082;5.066;2023-04-24T15:02:02;6.93;;;2.00;;
65759;SDS011;52496;51.082;5.066;2023-04-24T15:04:32;5.15;;;1.80;;
65759;SDS011;52496;51.082;5.066;2023-04-24T15:07:03;6.32;;;2.10;;
65759;SDS011;52496;51.082;5.066;2023-04-24T15:09:34;4.72;;;1.98;;
65759;SDS011;52496;51.082;5.066;2023-04-24T15:12:04;5.65;;;2.33;;
65759;SDS011;52496;51.082;5.066;2023-04-24T15:14:35;5.40;;;1.90;;
65759;SDS011;52496;51.082;5.066;2023-04-24T15:17:06;5.35;;;2.50;;
65759;SDS011;52496;51.082;5.066;2023-04-24T15:19:36;4.40;;;1.90;;
65759;SDS011;52496;51.082;5.066;2023-04-24T15:22:06;7.20;;;2.58;;